createdAt,value
2024-02-21T00:01:33.506Z,102028.09
2024-02-21T00:04:02.302Z,102030.75
2024-02-21T00:06:31.023Z,102032.41
2024-02-21T00:08:59.692Z,102029.16
2024-02-21T00:11:28.537Z,102015.38
2024-02-21T00:13:57.434Z,102016.09
2024-02-21T00:16:26.185Z,102019.63
2024-02-21T00:18:56.191Z,102009.28
2024-02-21T00:21:24.808Z,102024.78
2024-02-21T00:23:53.450Z,102028.44
2024-02-21T00:26:22.091Z,102034.56
2024-02-21T00:28:50.804Z,102031.13
2024-02-21T00:31:19.403Z,102025.91
2024-02-21T00:33:48.170Z,102020.72
2024-02-21T00:36:18.250Z,102020.00
2024-02-21T00:38:47.078Z,102025.19
2024-02-21T00:41:15.684Z,102029.38
2024-02-21T00:43:44.527Z,102025.75
2024-02-21T00:46:13.388Z,102020.78
2024-02-21T00:48:42.129Z,102018.28
2024-02-21T00:51:10.809Z,102022.59
2024-02-21T00:53:40.837Z,102031.38
2024-02-21T00:56:09.607Z,102033.75
2024-02-21T00:58:38.339Z,102024.06
2024-02-21T01:01:07.073Z,102026.63
2024-02-21T01:03:35.841Z,102029.09
2024-02-21T01:06:04.811Z,102037.88
2024-02-21T01:08:33.472Z,102029.22
2024-02-21T01:11:03.584Z,102014.44
2024-02-21T01:13:32.357Z,102008.47
2024-02-21T01:16:00.958Z,102001.69
2024-02-21T01:18:29.783Z,101997.38
2024-02-21T01:20:58.496Z,101993.81
2024-02-21T01:23:27.373Z,101995.59
2024-02-21T01:25:56.453Z,101984.31
2024-02-21T01:28:26.505Z,101987.00
2024-02-21T01:30:55.216Z,101985.97
2024-02-21T01:33:23.909Z,101983.25
2024-02-21T01:35:52.729Z,101980.59
2024-02-21T01:38:22.254Z,101924.22
2024-02-21T01:40:50.966Z,101970.84
2024-02-21T01:43:21.589Z,101970.13
2024-02-21T01:45:54.479Z,101969.41
2024-02-21T01:48:24.619Z,101965.72
2024-02-21T01:50:54.532Z,101911.97
2024-02-21T01:53:25.613Z,101969.19
2024-02-21T01:55:54.929Z,101962.19
2024-02-21T01:58:25.205Z,101954.53
2024-02-21T02:00:58.967Z,101953.47
2024-02-21T02:03:28.045Z,101938.81
2024-02-21T02:05:56.686Z,101929.31
2024-02-21T02:08:25.547Z,101934.56
2024-02-21T02:10:54.638Z,101927.81
2024-02-21T02:13:23.437Z,101924.19
2024-02-21T02:15:52.751Z,101880.75
2024-02-21T02:18:23.533Z,101931.97
2024-02-21T02:20:53.244Z,101931.09
2024-02-21T02:23:25.853Z,101930.78
2024-02-21T02:25:54.896Z,101914.69
2024-02-21T02:28:23.975Z,101920.59
2024-02-21T02:30:52.955Z,101920.63
2024-02-21T02:33:21.771Z,101918.94
2024-02-21T02:35:50.726Z,101918.13
2024-02-21T02:38:19.381Z,101913.88
2024-02-21T02:40:49.686Z,101912.91
2024-02-21T02:43:18.464Z,101912.16
2024-02-21T02:45:47.040Z,101914.59
2024-02-21T02:48:16.042Z,101906.88
2024-02-21T02:50:44.780Z,101906.69
2024-02-21T02:53:13.513Z,101904.22
2024-02-21T02:55:42.181Z,101892.09
2024-02-21T02:58:12.353Z,101892.72
2024-02-21T03:00:41.133Z,101876.34
2024-02-21T03:03:10.569Z,101879.97
2024-02-21T03:05:39.311Z,101884.38
2024-02-21T03:08:09.427Z,101875.47
2024-02-21T03:10:38.233Z,101877.31
2024-02-21T03:13:06.807Z,101871.94
2024-02-21T03:15:36.805Z,101874.63
2024-02-21T03:18:06.009Z,101864.16
2024-02-21T03:20:34.847Z,101856.06
2024-02-21T03:23:03.494Z,101850.38
2024-02-21T03:25:32.168Z,101845.13
2024-02-21T03:28:00.896Z,101837.16
2024-02-21T03:30:29.504Z,101829.44
2024-02-21T03:32:59.540Z,101832.97
2024-02-21T03:35:28.522Z,101827.38
2024-02-21T03:37:57.317Z,101831.09
2024-02-21T03:40:26.043Z,101827.03
2024-02-21T03:42:54.757Z,101822.38
2024-02-21T03:45:23.440Z,101828.94
2024-02-21T03:47:52.250Z,101834.47
2024-02-21T03:50:22.544Z,101829.03
2024-02-21T03:52:51.243Z,101824.00
2024-02-21T03:55:20.002Z,101832.91
2024-02-21T03:57:48.700Z,101826.16
2024-02-21T04:00:18.084Z,101821.91
2024-02-21T04:02:46.765Z,101819.47
2024-02-21T04:05:18.226Z,101818.94
2024-02-21T04:07:48.591Z,101804.63
2024-02-21T04:10:17.293Z,101808.84
2024-02-21T04:12:46.001Z,101742.50
2024-02-21T04:15:14.696Z,101814.94
2024-02-21T04:17:43.387Z,101817.59
2024-02-21T04:20:17.111Z,101820.19
2024-02-21T04:22:47.082Z,101822.91
2024-02-21T04:25:17.354Z,101822.72
2024-02-21T04:27:46.060Z,101815.78
2024-02-21T04:30:14.782Z,101813.00
2024-02-21T04:32:43.494Z,101804.06
2024-02-21T04:35:12.343Z,101796.13
2024-02-21T04:37:41.106Z,101793.19
2024-02-21T04:40:10.842Z,101792.00
2024-02-21T04:42:41.403Z,101789.72
2024-02-21T04:45:11.212Z,101784.69
2024-02-21T04:47:39.911Z,101768.13
2024-02-21T04:50:09.723Z,101775.84
2024-02-21T04:52:38.438Z,101772.09
2024-02-21T04:55:07.374Z,101762.97
2024-02-21T04:57:36.092Z,101766.50
2024-02-21T05:00:07.773Z,101776.03
2024-02-21T05:02:36.427Z,101771.25
2024-02-21T05:05:05.621Z,101770.91
2024-02-21T05:07:34.463Z,101768.59
2024-02-21T05:10:03.518Z,101758.88
2024-02-21T05:12:32.290Z,101755.38
2024-02-21T05:15:00.894Z,101747.47
2024-02-21T05:17:31.043Z,101733.44
2024-02-21T05:19:59.893Z,101734.94
2024-02-21T05:22:28.652Z,101735.38
2024-02-21T05:24:57.329Z,101733.03
2024-02-21T05:27:26.007Z,101726.69
2024-02-21T05:29:55.793Z,101723.69
2024-02-21T05:32:24.461Z,101713.59
2024-02-21T05:34:54.651Z,101712.34
2024-02-21T05:37:23.383Z,101706.00
2024-02-21T05:39:52.385Z,101700.91
2024-02-21T05:42:21.208Z,101691.03
2024-02-21T05:44:49.838Z,101684.06
2024-02-21T05:47:21.267Z,101672.88
2024-02-21T05:49:50.298Z,101674.22
2024-02-21T05:52:20.431Z,101681.81
2024-02-21T05:54:50.974Z,101678.44
2024-02-21T05:57:20.063Z,101685.97
2024-02-21T05:59:48.706Z,101673.25
2024-02-21T06:02:17.393Z,101669.41
2024-02-21T06:04:47.717Z,101662.53
2024-02-21T06:07:16.725Z,101670.97
2024-02-21T06:09:46.882Z,101668.75
2024-02-21T06:12:15.533Z,101673.94
2024-02-21T06:14:44.292Z,101672.81
2024-02-21T06:17:13.183Z,101665.41
2024-02-21T06:19:43.310Z,101675.63
2024-02-21T06:22:12.003Z,101671.25
2024-02-21T06:24:40.692Z,101678.19
2024-02-21T06:27:12.380Z,101681.06
2024-02-21T06:29:41.022Z,101680.81
2024-02-21T06:32:10.188Z,101680.56
2024-02-21T06:34:39.237Z,101681.59
2024-02-21T06:37:08.089Z,101680.09
2024-02-21T06:39:38.449Z,101670.44
2024-02-21T06:42:07.269Z,101674.66
2024-02-21T06:44:41.515Z,101666.59
2024-02-21T06:47:11.976Z,101668.34
2024-02-21T06:49:40.817Z,101657.31
2024-02-21T06:52:09.483Z,101653.75
2024-02-21T06:54:40.778Z,101651.84
2024-02-21T06:57:09.398Z,101647.63
2024-02-21T06:59:39.527Z,101645.31
2024-02-21T07:02:08.310Z,101640.97
2024-02-21T07:04:37.485Z,101634.72
2024-02-21T07:07:06.495Z,101632.22
2024-02-21T07:09:35.560Z,101633.06
2024-02-21T07:12:05.186Z,101630.38
2024-02-21T07:14:35.023Z,101626.03
2024-02-21T07:17:05.268Z,101629.63
2024-02-21T07:19:34.142Z,101606.72
2024-02-21T07:22:02.945Z,101613.28
2024-02-21T07:24:33.083Z,101607.69
2024-02-21T07:27:05.622Z,101599.31
2024-02-21T07:29:34.487Z,101597.47
2024-02-21T07:32:05.384Z,101587.69
2024-02-21T07:34:34.341Z,101578.94
2024-02-21T07:37:03.210Z,101585.44
2024-02-21T07:39:32.039Z,101578.63
2024-02-21T07:42:00.718Z,101587.16
2024-02-21T07:44:29.428Z,101522.56
2024-02-21T07:46:58.240Z,101581.22
2024-02-21T07:49:28.521Z,101574.97
2024-02-21T07:51:57.168Z,101574.88
2024-02-21T07:54:25.861Z,101578.25
2024-02-21T07:56:54.458Z,101569.31
2024-02-21T07:59:24.448Z,101558.91
2024-02-21T08:01:54.278Z,101563.53
2024-02-21T08:04:23.171Z,101549.78
2024-02-21T08:06:56.729Z,101562.59
2024-02-21T08:09:25.529Z,101559.69
2024-02-21T08:11:54.278Z,101555.38
2024-02-21T08:14:22.957Z,101552.91
2024-02-21T08:16:51.699Z,101540.56
2024-02-21T08:19:20.492Z,101534.28
2024-02-21T08:21:49.221Z,101537.88
2024-02-21T08:24:19.346Z,101536.34
2024-02-21T08:26:47.970Z,101518.09
2024-02-21T08:29:16.712Z,101528.09
2024-02-21T08:31:45.595Z,101527.25
2024-02-21T08:34:15.088Z,101531.69
2024-02-21T08:36:43.902Z,101523.03
2024-02-21T08:39:12.607Z,101505.69
2024-02-21T08:41:52.241Z,101503.81
2024-02-21T08:44:27.624Z,101470.75
2024-02-21T08:46:57.814Z,101513.59
2024-02-21T08:49:33.435Z,101499.66
2024-02-21T08:52:04.444Z,101504.75
2024-02-21T08:54:33.812Z,101498.06
2024-02-21T08:57:04.611Z,101494.56
2024-02-21T08:59:33.472Z,101501.22
2024-02-21T09:02:04.051Z,101498.59
2024-02-21T09:04:33.570Z,101491.84
2024-02-21T09:07:02.346Z,101487.59
2024-02-21T09:09:31.012Z,101477.66
2024-02-21T09:12:06.607Z,101478.19
2024-02-21T09:14:39.395Z,101449.66
2024-02-21T09:17:08.082Z,101468.53
2024-02-21T09:19:37.840Z,101412.56
2024-02-21T09:22:06.687Z,101448.19
2024-02-21T09:24:35.343Z,101443.63
2024-02-21T09:27:04.829Z,101435.97
2024-02-21T09:29:34.392Z,101428.13
2024-02-21T09:32:05.048Z,101423.28
2024-02-21T09:34:33.899Z,101414.59
2024-02-21T09:37:02.671Z,101402.28
2024-02-21T09:39:31.864Z,101404.63
2024-02-21T09:42:05.337Z,101392.41
2024-02-21T09:44:39.768Z,101388.63
2024-02-21T09:47:18.905Z,101377.31
2024-02-21T09:49:48.158Z,101363.25
2024-02-21T09:52:18.103Z,101358.44
2024-02-21T09:54:47.071Z,101357.38
2024-02-21T09:57:15.666Z,101357.22
2024-02-21T09:59:44.408Z,101328.84
2024-02-21T10:02:14.735Z,101338.31
2024-02-21T10:04:43.708Z,101341.66
2024-02-21T10:07:12.547Z,101339.66
2024-02-21T10:09:41.539Z,101330.47
2024-02-21T10:12:12.132Z,101319.38
2024-02-21T10:14:41.466Z,101326.41
2024-02-21T10:17:21.565Z,101314.56
2024-02-21T10:19:51.712Z,101297.16
2024-02-21T10:22:21.995Z,101294.00
2024-02-21T10:24:50.977Z,101288.16
2024-02-21T10:27:19.657Z,101279.19
2024-02-21T10:29:51.761Z,101261.00
2024-02-21T10:32:21.986Z,101248.19
2024-02-21T10:34:53.001Z,101248.59
2024-02-21T10:37:23.433Z,101249.47
2024-02-21T10:39:52.824Z,101253.97
2024-02-21T10:42:23.786Z,101268.31
2024-02-21T10:44:53.844Z,101263.53
2024-02-21T10:47:25.943Z,101265.38
2024-02-21T10:50:04.880Z,101281.06
2024-02-21T10:52:49.063Z,101278.84
2024-02-21T10:55:24.760Z,101278.00
2024-02-21T10:57:54.416Z,101271.25
2024-02-21T11:00:28.470Z,101259.19
2024-02-21T11:02:59.018Z,101251.72
2024-02-21T11:05:29.478Z,101269.06
2024-02-21T11:07:59.709Z,101259.06
2024-02-21T11:10:29.168Z,101260.75
2024-02-21T11:13:08.428Z,101240.94
2024-02-21T11:15:37.126Z,101243.56
2024-02-21T11:18:07.735Z,101217.75
2024-02-21T11:20:37.472Z,101221.34
2024-02-21T11:23:06.599Z,101210.66
2024-02-21T11:25:36.049Z,101201.97
2024-02-21T11:28:06.683Z,101166.84
2024-02-21T11:30:37.128Z,101171.72
2024-02-21T11:33:09.329Z,101165.91
2024-02-21T11:35:39.058Z,101172.31
2024-02-21T11:38:16.829Z,101127.66
2024-02-21T11:40:48.444Z,101131.94
2024-02-21T11:43:17.750Z,101127.94
2024-02-21T11:45:46.513Z,101130.19
2024-02-21T11:48:16.851Z,101124.53
2024-02-21T11:50:55.967Z,101112.28
2024-02-21T11:53:25.182Z,101109.63
2024-02-21T11:55:53.822Z,101105.91
2024-02-21T11:58:22.654Z,101099.81
2024-02-21T12:00:51.554Z,101093.22
2024-02-21T12:03:22.014Z,101072.59
2024-02-21T12:05:50.863Z,101079.38
2024-02-21T12:08:19.927Z,101079.72
2024-02-21T12:10:52.469Z,101065.31
2024-02-21T12:13:25.210Z,101059.97
2024-02-21T12:15:54.007Z,101040.91
2024-02-21T12:18:24.153Z,101044.91
2024-02-21T12:20:52.979Z,101045.84
2024-02-21T12:23:21.775Z,101029.69
2024-02-21T12:25:50.567Z,101009.25
2024-02-21T12:28:19.218Z,101002.09
2024-02-21T12:30:48.098Z,100998.16
2024-02-21T12:33:16.838Z,101004.00
2024-02-21T12:35:47.142Z,100974.81
2024-02-21T12:38:15.907Z,100966.75
2024-02-21T12:40:44.671Z,100971.91
2024-02-21T12:43:14.198Z,100967.56
2024-02-21T12:45:43.765Z,100952.84
2024-02-21T12:48:13.521Z,100960.66
2024-02-21T12:50:43.480Z,100942.91
2024-02-21T12:53:20.108Z,100933.06
2024-02-21T12:55:54.563Z,100929.41
2024-02-21T12:58:23.824Z,100938.84
2024-02-21T13:00:52.466Z,100942.22
2024-02-21T13:03:22.578Z,100928.19
2024-02-21T13:05:51.258Z,100916.75
2024-02-21T13:08:22.613Z,100910.75
2024-02-21T13:10:53.323Z,100901.22
2024-02-21T13:13:23.436Z,100912.19
2024-02-21T13:15:52.128Z,100899.16
2024-02-21T13:18:21.084Z,100899.31
2024-02-21T13:20:50.089Z,100895.09
2024-02-21T13:23:18.717Z,100893.34
2024-02-21T13:25:48.830Z,100869.38
2024-02-21T13:28:17.599Z,100860.97
2024-02-21T13:30:46.476Z,100860.19
2024-02-21T13:33:15.682Z,100812.16
2024-02-21T13:35:44.532Z,100850.78
2024-02-21T13:38:13.250Z,100837.47
2024-02-21T13:40:43.567Z,100843.47
2024-02-21T13:43:14.162Z,100834.44
2024-02-21T13:45:45.201Z,100815.72
2024-02-21T13:48:16.173Z,100818.09
2024-02-21T13:50:45.008Z,100799.00
2024-02-21T13:53:14.982Z,100772.00
2024-02-21T13:55:44.854Z,100755.84
2024-02-21T13:58:15.450Z,100737.59
2024-02-21T14:00:44.442Z,100740.34
2024-02-21T14:03:13.129Z,100719.94
2024-02-21T14:05:43.367Z,100704.56
2024-02-21T14:08:12.430Z,100693.81
2024-02-21T14:10:41.150Z,100672.59
2024-02-21T14:13:09.815Z,100665.91
2024-02-21T14:15:42.125Z,100662.47
2024-02-21T14:18:11.155Z,100656.59
2024-02-21T14:20:40.127Z,100654.09
2024-02-21T14:23:08.823Z,100652.34
2024-02-21T14:25:37.675Z,100644.75
2024-02-21T14:28:06.928Z,100615.41
2024-02-21T14:30:35.518Z,100622.88
2024-02-21T14:33:06.215Z,100603.38
2024-02-21T14:35:35.476Z,100597.22
2024-02-21T14:38:04.412Z,100581.94
2024-02-21T14:40:35.073Z,100590.63
2024-02-21T14:43:03.713Z,100569.63
2024-02-21T14:45:32.354Z,100519.53
2024-02-21T14:48:01.094Z,100566.25
2024-02-21T14:50:31.188Z,100552.38
2024-02-21T14:53:00.263Z,100536.50
2024-02-21T14:55:29.145Z,100539.03
2024-02-21T14:57:57.774Z,100537.34
2024-02-21T15:00:31.039Z,100509.91
2024-02-21T15:02:59.771Z,100504.78
2024-02-21T15:05:29.341Z,100487.66
2024-02-21T15:08:00.220Z,100501.44
2024-02-21T15:10:28.981Z,100491.25
2024-02-21T15:12:58.904Z,100467.97
2024-02-21T15:15:27.583Z,100468.38
2024-02-21T15:17:56.390Z,100449.56
2024-02-21T15:20:25.119Z,100450.16
2024-02-21T15:22:54.229Z,100442.63
2024-02-21T15:25:24.343Z,100423.09
2024-02-21T15:27:52.995Z,100432.91
2024-02-21T15:30:21.804Z,100430.53
2024-02-21T15:32:50.508Z,100424.22
2024-02-21T15:35:19.348Z,100425.19
2024-02-21T15:37:49.174Z,100392.00
2024-02-21T15:40:19.122Z,100413.97
2024-02-21T15:42:49.149Z,100412.13
2024-02-21T15:45:18.442Z,100392.47
2024-02-21T15:47:47.243Z,100396.69
2024-02-21T15:50:16.259Z,100393.84
2024-02-21T15:52:45.317Z,100393.09
2024-02-21T15:55:14.312Z,100373.53
2024-02-21T15:57:43.044Z,100387.75
2024-02-21T16:00:14.411Z,100377.84
2024-02-21T16:02:43.454Z,100364.75
2024-02-21T16:05:12.655Z,100373.34
2024-02-21T16:07:42.036Z,100361.47
2024-02-21T16:10:11.585Z,100343.69
2024-02-21T16:12:42.310Z,100356.00
2024-02-21T16:15:12.786Z,100338.78
2024-02-21T16:17:42.908Z,100341.47
2024-02-21T16:20:14.872Z,100315.19
2024-02-21T16:22:43.888Z,100327.31
2024-02-21T16:25:12.761Z,100322.78
2024-02-21T16:27:42.651Z,100313.34
2024-02-21T16:30:11.776Z,100315.38
2024-02-21T16:32:43.998Z,100304.28
2024-02-21T16:35:14.707Z,100291.47
2024-02-21T16:37:44.764Z,100286.72
2024-02-21T16:40:14.521Z,100298.47
2024-02-21T16:42:43.263Z,100300.47
2024-02-21T16:45:11.982Z,100290.63
2024-02-21T16:47:40.790Z,100279.03
2024-02-21T16:50:10.471Z,100281.44
2024-02-21T16:52:41.358Z,100269.47
2024-02-21T16:55:11.496Z,100263.44
2024-02-21T16:57:41.143Z,100274.41
2024-02-21T17:00:12.709Z,100269.06
2024-02-21T17:02:48.470Z,100253.75
2024-02-21T17:05:27.277Z,100254.97
2024-02-21T17:07:57.649Z,100234.94
2024-02-21T17:10:26.292Z,100234.19
2024-02-21T17:12:55.033Z,100227.78
2024-02-21T17:15:23.850Z,100215.03
2024-02-21T17:17:52.924Z,100222.44
2024-02-21T17:20:21.688Z,100210.81
2024-02-21T17:22:50.436Z,100225.34
2024-02-21T17:25:20.584Z,100209.50
2024-02-21T17:27:50.974Z,100193.69
2024-02-21T17:30:19.971Z,100198.38
2024-02-21T17:32:48.621Z,100189.38
2024-02-21T17:35:17.640Z,100191.34
2024-02-21T17:37:47.394Z,100167.22
2024-02-21T17:40:17.489Z,100178.22
2024-02-21T17:42:47.642Z,100183.78
2024-02-21T17:45:16.849Z,100171.94
2024-02-21T17:47:45.509Z,100152.34
2024-02-21T17:50:16.632Z,100148.56
2024-02-21T17:52:45.512Z,100139.25
2024-02-21T17:55:14.573Z,100153.13
2024-02-21T17:57:43.435Z,100129.84
2024-02-21T18:00:16.953Z,100135.19
2024-02-21T18:02:45.711Z,100122.81
2024-02-21T18:05:14.670Z,100132.88
2024-02-21T18:07:43.583Z,100121.06
2024-02-21T18:10:12.401Z,100127.13
2024-02-21T18:12:41.032Z,100114.69
2024-02-21T18:15:12.424Z,100122.59
2024-02-21T18:17:42.668Z,100116.84
2024-02-21T18:20:12.348Z,100114.69
2024-02-21T18:22:41.225Z,100108.66
2024-02-21T18:25:11.675Z,100100.88
2024-02-21T18:27:40.351Z,100090.38
2024-02-21T18:30:09.865Z,100080.63
2024-02-21T18:32:38.627Z,100072.50
2024-02-21T18:35:09.716Z,100069.38
2024-02-21T18:37:38.577Z,100067.72
2024-02-21T18:40:12.701Z,100058.59
2024-02-21T18:42:42.534Z,100057.81
2024-02-21T18:45:12.191Z,100084.88
2024-02-21T18:47:41.077Z,100051.78
2024-02-21T18:50:12.494Z,100066.34
2024-02-21T18:52:41.247Z,100047.00
2024-02-21T18:55:12.345Z,100059.84
2024-02-21T18:57:41.156Z,100047.91
2024-02-21T19:00:14.292Z,100017.16
2024-02-21T19:02:43.002Z,100019.25
2024-02-21T19:05:13.350Z,100020.09
2024-02-21T19:07:42.469Z,100002.00
2024-02-21T19:10:13.204Z,100004.28
2024-02-21T19:12:42.193Z,99997.31
2024-02-21T19:15:11.321Z,99990.09
2024-02-21T19:17:40.385Z,99993.94
2024-02-21T19:20:12.446Z,99982.97
2024-02-21T19:22:46.899Z,99986.91
2024-02-21T19:25:18.484Z,99973.75
2024-02-21T19:27:47.479Z,99983.41
2024-02-21T19:30:17.671Z,99939.50
2024-02-21T19:32:46.338Z,99970.13
2024-02-21T19:35:15.142Z,99973.34
2024-02-21T19:37:45.290Z,99961.59
2024-02-21T19:40:14.885Z,99952.56
2024-02-21T19:42:45.080Z,99960.34
2024-02-21T19:45:13.915Z,99963.38
2024-02-21T19:47:44.838Z,99952.34
2024-02-21T19:50:16.454Z,99957.69
2024-02-21T19:52:46.593Z,99950.44
2024-02-21T19:55:15.562Z,99948.88
2024-02-21T19:57:44.261Z,99946.50
2024-02-21T20:00:13.896Z,99936.09
2024-02-21T20:02:43.848Z,99930.50
2024-02-21T20:05:13.313Z,99930.69
2024-02-21T20:07:42.601Z,99917.03
2024-02-21T20:10:15.130Z,99920.56
2024-02-21T20:12:43.870Z,99916.63
2024-02-21T20:15:14.936Z,99868.63
2024-02-21T20:17:47.265Z,99909.47
2024-02-21T20:20:16.574Z,99909.88
2024-02-21T20:22:45.534Z,99908.81
2024-02-21T20:25:16.747Z,99906.78
2024-02-21T20:27:45.504Z,99889.97
2024-02-21T20:30:15.132Z,99896.72
2024-02-21T20:32:44.405Z,99898.69
2024-02-21T20:35:13.691Z,99896.72
2024-02-21T20:37:42.647Z,99897.13
2024-02-21T20:40:12.637Z,99886.84
2024-02-21T20:42:42.856Z,99875.09
2024-02-21T20:45:12.201Z,99874.28
2024-02-21T20:47:41.092Z,99853.72
2024-02-21T20:50:10.629Z,99864.56
2024-02-21T20:52:39.495Z,99862.13
2024-02-21T20:55:10.276Z,99870.50
2024-02-21T20:57:40.063Z,99862.03
2024-02-21T21:00:12.692Z,99861.66
2024-02-21T21:02:41.574Z,99849.97
2024-02-21T21:05:10.799Z,99853.16
2024-02-21T21:07:40.029Z,99850.25
2024-02-21T21:10:09.716Z,99844.78
2024-02-21T21:12:38.525Z,99844.25
2024-02-21T21:15:09.123Z,99839.69
2024-02-21T21:17:39.400Z,99836.81
2024-02-21T21:20:13.476Z,99837.38
2024-02-21T21:22:42.477Z,99831.78
2024-02-21T21:25:11.572Z,99828.09
2024-02-21T21:27:41.626Z,99833.28
2024-02-21T21:30:11.331Z,99839.59
2024-02-21T21:32:41.453Z,99834.41
2024-02-21T21:35:12.031Z,99829.47
2024-02-21T21:37:42.313Z,99827.63
2024-02-21T21:40:13.925Z,99826.41
2024-02-21T21:42:43.100Z,99834.22
2024-02-21T21:45:12.745Z,99821.31
2024-02-21T21:47:44.060Z,99780.13
2024-02-21T21:50:12.940Z,99818.72
2024-02-21T21:52:41.852Z,99812.31
2024-02-21T21:55:12.010Z,99808.22
2024-02-21T21:57:40.813Z,99811.13
2024-02-21T22:00:11.227Z,99794.94
2024-02-21T22:02:48.364Z,99784.00
2024-02-21T22:05:18.013Z,99798.66
2024-02-21T22:07:47.747Z,99786.13
2024-02-21T22:10:16.640Z,99783.97
2024-02-21T22:12:45.331Z,99773.69
2024-02-21T22:15:13.941Z,99770.44
2024-02-21T22:17:44.022Z,99759.72
2024-02-21T22:20:13.134Z,99764.47
2024-02-21T22:22:42.072Z,99771.38
2024-02-21T22:25:11.092Z,99778.31
2024-02-21T22:27:39.733Z,99762.75
2024-02-21T22:30:10.446Z,99766.81
2024-02-21T22:32:40.426Z,99767.53
2024-02-21T22:35:10.964Z,99764.66
2024-02-21T22:37:39.645Z,99766.94
2024-02-21T22:40:09.415Z,99770.63
2024-02-21T22:42:38.197Z,99770.81
2024-02-21T22:45:07.886Z,99760.44
2024-02-21T22:47:36.672Z,99769.03
2024-02-21T22:50:06.034Z,99762.75
2024-02-21T22:52:36.213Z,99769.25
2024-02-21T22:55:05.117Z,99767.59
2024-02-21T22:57:33.743Z,99764.59
2024-02-21T23:00:02.520Z,99775.00
2024-02-21T23:02:31.363Z,99772.59
2024-02-21T23:05:00.009Z,99762.94
2024-02-21T23:07:28.743Z,99758.50
2024-02-21T23:09:59.484Z,99774.81
2024-02-21T23:12:28.155Z,99758.66
2024-02-21T23:14:56.815Z,99762.91
2024-02-21T23:17:25.478Z,99767.13
2024-02-21T23:19:54.165Z,99763.31
2024-02-21T23:22:23.322Z,99763.50
2024-02-21T23:24:51.960Z,99762.00
2024-02-21T23:27:21.979Z,99747.13
2024-02-21T23:29:50.720Z,99756.88
2024-02-21T23:32:20.289Z,99755.69
2024-02-21T23:34:48.980Z,99747.06
2024-02-21T23:37:18.945Z,99750.84
2024-02-21T23:39:47.744Z,99750.31
2024-02-21T23:42:16.349Z,99752.34
2024-02-21T23:44:46.326Z,99752.00
2024-02-21T23:47:15.156Z,99747.91
2024-02-21T23:49:43.902Z,99743.81
2024-02-21T23:52:12.592Z,99738.22
2024-02-21T23:54:41.276Z,99740.16
2024-02-21T23:57:10.028Z,99734.50
2024-02-21T23:59:39.607Z,99731.91
